sensor_id;sensor_type;location;lat;lon;timestamp;pressure;altitude;pressure_sealevel;temperature;humidity
59767;BME280;46248;58.364;25.582;2023-12-29T00:02:02;98868.88;;;0.07;100.00
59767;BME280;46248;58.364;25.582;2023-12-29T00:05:25;98870.44;;;0.11;100.00
59767;BME280;46248;58.364;25.582;2023-12-29T00:08:49;98867.81;;;0.13;100.00
59767;BME280;46248;58.364;25.582;2023-12-29T00:12:13;98858.19;;;0.18;100.00
59767;BME280;46248;58.364;25.582;2023-12-29T00:15:38;98875.03;;;0.27;100.00
59767;BME280;46248;58.364;25.582;2023-12-29T00:19:01;98870.78;;;0.26;100.00
59767;BME280;46248;58.364;25.582;2023-12-29T00:22:24;98875.84;;;0.29;100.00
59767;BME280;46248;58.364;25.582;2023-12-29T00:25:48;98871.50;;;0.29;100.00
59767;BME280;46248;58.364;25.582;2023-12-29T00:29:11;98865.31;;;0.35;100.00
59767;BME280;46248;58.364;25.582;2023-12-29T00:32:35;98871.19;;;0.38;100.00
59767;BME280;46248;58.364;25.582;2023-12-29T00:35:58;98878.03;;;0.39;100.00
59767;BME280;46248;58.364;25.582;2023-12-29T00:39:20;98881.25;;;0.44;100.00
59767;BME280;46248;58.364;25.582;2023-12-29T00:42:49;98872.81;;;0.41;100.00
59767;BME280;46248;58.364;25.582;2023-12-29T00:46:14;98872.56;;;0.49;100.00
59767;BME280;46248;58.364;25.582;2023-12-29T00:49:40;98877.63;;;0.50;100.00
59767;BME280;46248;58.364;25.582;2023-12-29T00:53:03;98866.53;;;0.48;100.00
59767;BME280;46248;58.364;25.582;2023-12-29T00:56:26;98861.34;;;0.50;100.00
59767;BME280;46248;58.364;25.582;2023-12-29T00:59:48;98869.63;;;0.58;100.00
59767;BME280;46248;58.364;25.582;2023-12-29T01:03:11;98873.78;;;0.62;100.00
59767;BME280;46248;58.364;25.582;2023-12-29T01:06:35;98867.56;;;0.67;100.00
59767;BME280;46248;58.364;25.582;2023-12-29T01:09:58;98861.44;;;0.70;100.00
59767;BME280;46248;58.364;25.582;2023-12-29T01:13:22;98865.53;;;0.76;100.00
59767;BME280;46248;58.364;25.582;2023-12-29T01:16:45;98869.59;;;0.81;100.00
59767;BME280;46248;58.364;25.582;2023-12-29T01:20:08;98861.88;;;0.81;100.00
59767;BME280;46248;58.364;25.582;2023-12-29T01:23:33;98863.50;;;0.84;100.00
59767;BME280;46248;58.364;25.582;2023-12-29T01:26:56;98871.09;;;0.87;100.00
59767;BME280;46248;58.364;25.582;2023-12-29T01:30:19;98865.81;;;0.90;100.00
59767;BME280;46248;58.364;25.582;2023-12-29T01:33:42;98863.94;;;0.95;100.00
59767;BME280;46248;58.364;25.582;2023-12-29T01:37:05;98874.03;;;1.00;100.00
59767;BME280;46248;58.364;25.582;2023-12-29T01:40:30;98876.50;;;1.03;100.00
59767;BME280;46248;58.364;25.582;2023-12-29T01:44:23;98866.97;;;1.05;100.00
59767;BME280;46248;58.364;25.582;2023-12-29T01:47:46;98866.03;;;1.07;100.00
59767;BME280;46248;58.364;25.582;2023-12-29T01:51:09;98872.72;;;1.11;100.00
59767;BME280;46248;58.364;25.582;2023-12-29T01:54:35;98866.75;;;1.11;100.00
59767;BME280;46248;58.364;25.582;2023-12-29T01:58:04;98876.75;;;1.19;100.00
59767;BME280;46248;58.364;25.582;2023-12-29T02:01:27;98880.06;;;1.22;100.00
59767;BME280;46248;58.364;25.582;2023-12-29T02:04:50;98888.59;;;1.24;100.00
59767;BME280;46248;58.364;25.582;2023-12-29T02:08:13;98880.88;;;1.23;100.00
59767;BME280;46248;58.364;25.582;2023-12-29T02:11:36;98886.75;;;1.26;100.00
59767;BME280;46248;58.364;25.582;2023-12-29T02:15:00;98893.63;;;1.27;100.00
59767;BME280;46248;58.364;25.582;2023-12-29T02:18:24;98907.16;;;1.32;100.00
59767;BME280;46248;58.364;25.582;2023-12-29T02:21:48;98897.03;;;1.28;100.00
59767;BME280;46248;58.364;25.582;2023-12-29T02:25:13;98896.84;;;1.32;100.00
59767;BME280;46248;58.364;25.582;2023-12-29T02:28:39;98901.09;;;1.33;100.00
59767;BME280;46248;58.364;25.582;2023-12-29T02:32:11;98915.47;;;1.39;100.00
59767;BME280;46248;58.364;25.582;2023-12-29T02:35:41;98912.06;;;1.38;100.00
59767;BME280;46248;58.364;25.582;2023-12-29T02:39:05;98924.06;;;1.40;100.00
59767;BME280;46248;58.364;25.582;2023-12-29T02:42:29;98925.03;;;1.37;100.00
59767;BME280;46248;58.364;25.582;2023-12-29T02:45:52;98921.78;;;1.32;100.00
59767;BME280;46248;58.364;25.582;2023-12-29T02:49:15;98931.16;;;1.34;100.00
59767;BME280;46248;58.364;25.582;2023-12-29T02:52:38;98926.00;;;1.34;100.00
59767;BME280;46248;58.364;25.582;2023-12-29T02:56:01;98929.53;;;1.32;100.00
59767;BME280;46248;58.364;25.582;2023-12-29T02:59:25;98935.59;;;1.31;100.00
59767;BME280;46248;58.364;25.582;2023-12-29T03:02:48;98937.34;;;1.30;100.00
59767;BME280;46248;58.364;25.582;2023-12-29T03:06:11;98939.03;;;1.30;100.00
59767;BME280;46248;58.364;25.582;2023-12-29T03:09:34;98936.53;;;1.28;100.00
59767;BME280;46248;58.364;25.582;2023-12-29T03:12:57;98936.53;;;1.28;100.00
59767;BME280;46248;58.364;25.582;2023-12-29T03:16:21;98940.03;;;1.27;100.00
59767;BME280;46248;58.364;25.582;2023-12-29T03:19:44;98937.50;;;1.26;100.00
59767;BME280;46248;58.364;25.582;2023-12-29T03:23:07;98947.81;;;1.26;100.00
59767;BME280;46248;58.364;25.582;2023-12-29T03:26:30;98946.84;;;1.28;100.00
59767;BME280;46248;58.364;25.582;2023-12-29T03:29:52;98949.47;;;1.27;100.00
59767;BME280;46248;58.364;25.582;2023-12-29T03:33:17;98949.56;;;1.25;100.00
59767;BME280;46248;58.364;25.582;2023-12-29T03:36:40;98959.03;;;1.25;100.00
59767;BME280;46248;58.364;25.582;2023-12-29T03:40:03;98959.03;;;1.25;100.00
59767;BME280;46248;58.364;25.582;2023-12-29T03:43:26;98961.78;;;1.20;100.00
59767;BME280;46248;58.364;25.582;2023-12-29T03:46:50;98961.84;;;1.19;100.00
59767;BME280;46248;58.364;25.582;2023-12-29T03:50:14;98977.97;;;1.24;100.00
59767;BME280;46248;58.364;25.582;2023-12-29T03:53:37;98976.34;;;1.21;100.00
59767;BME280;46248;58.364;25.582;2023-12-29T03:56:59;98978.88;;;1.23;100.00
59767;BME280;46248;58.364;25.582;2023-12-29T04:00:22;98971.34;;;1.17;100.00
59767;BME280;46248;58.364;25.582;2023-12-29T04:03:45;98973.09;;;1.16;100.00
59767;BME280;46248;58.364;25.582;2023-12-29T04:07:10;98972.28;;;1.16;100.00
59767;BME280;46248;58.364;25.582;2023-12-29T04:10:33;98972.09;;;1.20;100.00
59767;BME280;46248;58.364;25.582;2023-12-29T04:13:56;98971.19;;;1.21;100.00
59767;BME280;46248;58.364;25.582;2023-12-29T04:17:18;98963.47;;;1.21;100.00
59767;BME280;46248;58.364;25.582;2023-12-29T04:20:41;98966.03;;;1.21;100.00
59767;BME280;46248;58.364;25.582;2023-12-29T04:24:06;98951.47;;;1.20;100.00
59767;BME280;46248;58.364;25.582;2023-12-29T04:27:29;98951.34;;;1.23;100.00
59767;BME280;46248;58.364;25.582;2023-12-29T04:30:52;98948.75;;;1.23;100.00
59767;BME280;46248;58.364;25.582;2023-12-29T04:34:15;98947.00;;;1.24;100.00
59767;BME280;46248;58.364;25.582;2023-12-29T04:37:38;98937.81;;;1.18;100.00
59767;BME280;46248;58.364;25.582;2023-12-29T04:41:03;98930.91;;;1.19;100.00
59767;BME280;46248;58.364;25.582;2023-12-29T04:44:26;98932.69;;;1.17;100.00
59767;BME280;46248;58.364;25.582;2023-12-29T04:47:49;98937.00;;;1.16;100.00
59767;BME280;46248;58.364;25.582;2023-12-29T04:51:12;98938.81;;;1.14;100.00
59767;BME280;46248;58.364;25.582;2023-12-29T04:54:35;98937.13;;;1.13;100.00
59767;BME280;46248;58.364;25.582;2023-12-29T04:58:00;98937.97;;;1.13;100.00
59767;BME280;46248;58.364;25.582;2023-12-29T05:01:24;98943.16;;;1.12;100.00
59767;BME280;46248;58.364;25.582;2023-12-29T05:04:47;98936.53;;;1.06;100.00
59767;BME280;46248;58.364;25.582;2023-12-29T05:08:10;98944.97;;;1.10;100.00
59767;BME280;46248;58.364;25.582;2023-12-29T05:11:33;98945.81;;;1.10;100.00
59767;BME280;46248;58.364;25.582;2023-12-29T05:14:57;98941.56;;;1.09;100.00
59767;BME280;46248;58.364;25.582;2023-12-29T05:18:21;98939.75;;;1.11;100.00
59767;BME280;46248;58.364;25.582;2023-12-29T05:21:43;98930.47;;;1.07;100.00
59767;BME280;46248;58.364;25.582;2023-12-29T05:25:07;98942.41;;;1.10;100.00
59767;BME280;46248;58.364;25.582;2023-12-29T05:28:30;98933.03;;;1.07;100.00
59767;BME280;46248;58.364;25.582;2023-12-29T05:31:55;98931.31;;;1.08;100.00
59767;BME280;46248;58.364;25.582;2023-12-29T05:35:18;98939.09;;;1.06;100.00
59767;BME280;46248;58.364;25.582;2023-12-29T05:38:45;98934.06;;;1.03;100.00
59767;BME280;46248;58.364;25.582;2023-12-29T05:42:08;98938.34;;;1.03;100.00
59767;BME280;46248;58.364;25.582;2023-12-29T05:45:31;98939.22;;;1.03;100.00
59767;BME280;46248;58.364;25.582;2023-12-29T05:48:55;98930.75;;;1.00;100.00
59767;BME280;46248;58.364;25.582;2023-12-29T05:52:18;98934.09;;;1.02;100.00
59767;BME280;46248;58.364;25.582;2023-12-29T05:55:41;98930.69;;;1.01;100.00
59767;BME280;46248;58.364;25.582;2023-12-29T05:59:04;98939.97;;;1.05;100.00
59767;BME280;46248;58.364;25.582;2023-12-29T06:02:27;98933.16;;;1.04;100.00
59767;BME280;46248;58.364;25.582;2023-12-29T06:05:51;98939.09;;;1.06;100.00
59767;BME280;46248;58.364;25.582;2023-12-29T06:09:14;98949.31;;;1.09;100.00
59767;BME280;46248;58.364;25.582;2023-12-29T06:12:37;98949.22;;;1.11;100.00
59767;BME280;46248;58.364;25.582;2023-12-29T06:16:01;98957.78;;;1.11;100.00
59767;BME280;46248;58.364;25.582;2023-12-29T06:19:23;98945.75;;;1.12;100.00
59767;BME280;46248;58.364;25.582;2023-12-29T06:22:48;98949.31;;;1.09;100.00
59767;BME280;46248;58.364;25.582;2023-12-29T06:26:15;98943.06;;;1.15;100.00
59767;BME280;46248;58.364;25.582;2023-12-29T06:34:11;98920.19;;;1.06;100.00
59767;BME280;46248;58.364;25.582;2023-12-29T06:37:36;98932.75;;;1.15;100.00
59767;BME280;46248;58.364;25.582;2023-12-29T06:41:01;98931.97;;;1.13;100.00
59767;BME280;46248;58.364;25.582;2023-12-29T06:44:24;98933.75;;;1.11;100.00
59767;BME280;46248;58.364;25.582;2023-12-29T06:47:47;98936.47;;;1.08;100.00
59767;BME280;46248;58.364;25.582;2023-12-29T06:51:16;98931.25;;;1.09;100.00
59767;BME280;46248;58.364;25.582;2023-12-29T06:54:39;98932.94;;;1.10;100.00
59767;BME280;46248;58.364;25.582;2023-12-29T06:58:04;98942.31;;;1.11;100.00
59767;BME280;46248;58.364;25.582;2023-12-29T07:01:27;98930.34;;;1.10;100.00
59767;BME280;46248;58.364;25.582;2023-12-29T07:04:49;98926.03;;;1.11;100.00
59767;BME280;46248;58.364;25.582;2023-12-29T07:08:13;98920.06;;;1.09;100.00
59767;BME280;46248;58.364;25.582;2023-12-29T07:11:36;98918.28;;;1.11;100.00
59767;BME280;46248;58.364;25.582;2023-12-29T07:15:01;98913.81;;;1.16;100.00
59767;BME280;46248;58.364;25.582;2023-12-29T07:18:24;98907.75;;;1.17;100.00
59767;BME280;46248;58.364;25.582;2023-12-29T07:21:46;98900.97;;;1.14;100.00
59767;BME280;46248;58.364;25.582;2023-12-29T07:25:09;98900.72;;;1.21;100.00
59767;BME280;46248;58.364;25.582;2023-12-29T07:28:33;98900.69;;;1.22;100.00
59767;BME280;46248;58.364;25.582;2023-12-29T07:31:57;98899.72;;;1.25;100.00
59767;BME280;46248;58.364;25.582;2023-12-29T07:35:20;98891.03;;;1.27;100.00
59767;BME280;46248;58.364;25.582;2023-12-29T07:38:43;98886.63;;;1.29;100.00
59767;BME280;46248;58.364;25.582;2023-12-29T07:42:07;98884.00;;;1.31;100.00
59767;BME280;46248;58.364;25.582;2023-12-29T07:45:30;98874.53;;;1.31;100.00
59767;BME280;46248;58.364;25.582;2023-12-29T07:48:54;98873.63;;;1.32;100.00
59767;BME280;46248;58.364;25.582;2023-12-29T07:52:18;98867.59;;;1.33;100.00
59767;BME280;46248;58.364;25.582;2023-12-29T07:55:42;98863.25;;;1.34;100.00
59767;BME280;46248;58.364;25.582;2023-12-29T07:59:07;98839.28;;;1.32;100.00
59767;BME280;46248;58.364;25.582;2023-12-29T08:02:31;98846.84;;;1.36;100.00
59767;BME280;46248;58.364;25.582;2023-12-29T08:05:55;98844.97;;;1.40;100.00
59767;BME280;46248;58.364;25.582;2023-12-29T08:09:18;98849.16;;;1.43;100.00
59767;BME280;46248;58.364;25.582;2023-12-29T08:12:42;98834.56;;;1.42;100.00
59767;BME280;46248;58.364;25.582;2023-12-29T08:16:06;98845.47;;;1.48;100.00
59767;BME280;46248;58.364;25.582;2023-12-29T08:19:29;98837.81;;;1.47;100.00
59767;BME280;46248;58.364;25.582;2023-12-29T08:22:55;98832.47;;;1.51;100.00
59767;BME280;46248;58.364;25.582;2023-12-29T08:26:19;98837.50;;;1.54;100.00
59767;BME280;46248;58.364;25.582;2023-12-29T08:29:41;98833.09;;;1.56;100.00
59767;BME280;46248;58.364;25.582;2023-12-29T08:33:05;98824.47;;;1.57;100.00
59767;BME280;46248;58.364;25.582;2023-12-29T08:36:28;98813.44;;;1.54;100.00
59767;BME280;46248;58.364;25.582;2023-12-29T08:39:53;98815.56;;;1.65;100.00
59767;BME280;46248;58.364;25.582;2023-12-29T08:43:17;98809.59;;;1.64;100.00
59767;BME280;46248;58.364;25.582;2023-12-29T08:46:42;98803.47;;;1.67;100.00
59767;BME280;46248;58.364;25.582;2023-12-29T08:50:06;98803.47;;;1.67;100.00
59767;BME280;46248;58.364;25.582;2023-12-29T08:53:29;98804.06;;;1.72;100.00
59767;BME280;46248;58.364;25.582;2023-12-29T08:56:56;98797.94;;;1.74;100.00
59767;BME280;46248;58.364;25.582;2023-12-29T09:00:19;98781.56;;;1.75;100.00
59767;BME280;46248;58.364;25.582;2023-12-29T09:03:42;98790.78;;;1.81;100.00
59767;BME280;46248;58.364;25.582;2023-12-29T09:07:05;98784.66;;;1.83;100.00
59767;BME280;46248;58.364;25.582;2023-12-29T09:10:28;98769.94;;;1.86;100.00
59767;BME280;46248;58.364;25.582;2023-12-29T09:13:52;98764.78;;;1.86;100.00
59767;BME280;46248;58.364;25.582;2023-12-29T09:17:15;98764.53;;;1.92;100.00
59767;BME280;46248;58.364;25.582;2023-12-29T09:20:38;98758.53;;;1.91;100.00
59767;BME280;46248;58.364;25.582;2023-12-29T09:24:02;98750.69;;;1.93;100.00
59767;BME280;46248;58.364;25.582;2023-12-29T09:27:25;98754.97;;;1.94;100.00
59767;BME280;46248;58.364;25.582;2023-12-29T09:30:50;98742.91;;;1.94;100.00
59767;BME280;46248;58.364;25.582;2023-12-29T09:34:13;98733.41;;;1.95;100.00
59767;BME280;46248;58.364;25.582;2023-12-29T09:37:36;98732.44;;;1.97;100.00
59767;BME280;46248;58.364;25.582;2023-12-29T09:41:04;98725.31;;;2.02;100.00
59767;BME280;46248;58.364;25.582;2023-12-29T09:44:28;98712.25;;;2.05;100.00
59767;BME280;46248;58.364;25.582;2023-12-29T09:47:52;98706.34;;;2.03;100.00
59767;BME280;46248;58.364;25.582;2023-12-29T09:51:17;98707.97;;;2.06;100.00
59767;BME280;46248;58.364;25.582;2023-12-29T09:54:45;98697.56;;;2.08;100.00
59767;BME280;46248;58.364;25.582;2023-12-29T09:58:10;98695.66;;;2.11;100.00
59767;BME280;46248;58.364;25.582;2023-12-29T10:01:36;98683.53;;;2.13;100.00
59767;BME280;46248;58.364;25.582;2023-12-29T10:05:01;98669.00;;;2.11;100.00
59767;BME280;46248;58.364;25.582;2023-12-29T10:08:26;98669.56;;;2.17;100.00
59767;BME280;46248;58.364;25.582;2023-12-29T10:11:50;98660.00;;;2.19;100.00
59767;BME280;46248;58.364;25.582;2023-12-29T10:15:17;98656.44;;;2.22;100.00
59767;BME280;46248;58.364;25.582;2023-12-29T10:18:56;98654.50;;;2.27;100.00
59767;BME280;46248;58.364;25.582;2023-12-29T10:22:30;98634.81;;;2.24;100.00
59767;BME280;46248;58.364;25.582;2023-12-29T10:25:54;98627.13;;;2.23;100.00
59767;BME280;46248;58.364;25.582;2023-12-29T10:29:18;98626.09;;;2.27;100.00
59767;BME280;46248;58.364;25.582;2023-12-29T10:32:42;98627.50;;;2.33;100.00
59767;BME280;46248;58.364;25.582;2023-12-29T10:36:05;98624.94;;;2.33;100.00
59767;BME280;46248;58.364;25.582;2023-12-29T10:39:35;98619.84;;;2.31;100.00
59767;BME280;46248;58.364;25.582;2023-12-29T10:42:59;98615.47;;;2.33;100.00
59767;BME280;46248;58.364;25.582;2023-12-29T10:46:28;98615.31;;;2.36;100.00
59767;BME280;46248;58.364;25.582;2023-12-29T10:49:58;98606.56;;;2.39;100.00
59767;BME280;46248;58.364;25.582;2023-12-29T10:53:22;98604.91;;;2.38;100.00
59767;BME280;46248;58.364;25.582;2023-12-29T10:56:47;98603.00;;;2.41;100.00
59767;BME280;46248;58.364;25.582;2023-12-29T11:00:10;98589.94;;;2.44;100.00
59767;BME280;46248;58.364;25.582;2023-12-29T11:03:35;98591.69;;;2.44;100.00
59767;BME280;46248;58.364;25.582;2023-12-29T11:06:58;98589.09;;;2.44;100.00
59767;BME280;46248;58.364;25.582;2023-12-29T11:10:21;98593.19;;;2.48;100.00
59767;BME280;46248;58.364;25.582;2023-12-29T11:13:46;98586.38;;;2.47;100.00
59767;BME280;46248;58.364;25.582;2023-12-29T11:17:09;98587.13;;;2.49;100.00
59767;BME280;46248;58.364;25.582;2023-12-29T11:20:34;98590.41;;;2.52;100.00
59767;BME280;46248;58.364;25.582;2023-12-29T11:23:58;98592.16;;;2.52;100.00
59767;BME280;46248;58.364;25.582;2023-12-29T11:27:22;98584.41;;;2.52;100.00
59767;BME280;46248;58.364;25.582;2023-12-29T11:30:47;98585.06;;;2.56;100.00
59767;BME280;46248;58.364;25.582;2023-12-29T11:34:18;98574.66;;;2.57;100.00
59767;BME280;46248;58.364;25.582;2023-12-29T11:41:37;98574.50;;;2.60;100.00
59767;BME280;46248;58.364;25.582;2023-12-29T11:45:23;98574.38;;;2.63;100.00
59767;BME280;46248;58.364;25.582;2023-12-29T11:48:57;98571.84;;;2.62;100.00
59767;BME280;46248;58.364;25.582;2023-12-29T11:52:33;98566.69;;;2.62;100.00
59767;BME280;46248;58.364;25.582;2023-12-29T11:55:56;98568.34;;;2.63;100.00
59767;BME280;46248;58.364;25.582;2023-12-29T11:59:20;98557.19;;;2.62;100.00
59767;BME280;46248;58.364;25.582;2023-12-29T12:02:43;98556.34;;;2.62;100.00
59767;BME280;46248;58.364;25.582;2023-12-29T12:06:08;98544.19;;;2.64;100.00
59767;BME280;46248;58.364;25.582;2023-12-29T12:09:31;98543.28;;;2.65;100.00
59767;BME280;46248;58.364;25.582;2023-12-29T12:12:55;98543.22;;;2.66;100.00
59767;BME280;46248;58.364;25.582;2023-12-29T12:16:47;98537.03;;;2.69;100.00
59767;BME280;46248;58.364;25.582;2023-12-29T12:20:13;98538.63;;;2.71;100.00
59767;BME280;46248;58.364;25.582;2023-12-29T12:23:37;98539.56;;;2.70;100.00
59767;BME280;46248;58.364;25.582;2023-12-29T12:27:02;98530.13;;;2.69;100.00
59767;BME280;46248;58.364;25.582;2023-12-29T12:30:25;98525.03;;;2.68;100.00
59767;BME280;46248;58.364;25.582;2023-12-29T12:33:53;98527.63;;;2.68;100.00
59767;BME280;46248;58.364;25.582;2023-12-29T12:37:21;98524.19;;;2.67;100.00
59767;BME280;46248;58.364;25.582;2023-12-29T12:40:45;98527.72;;;2.66;100.00
59767;BME280;46248;58.364;25.582;2023-12-29T12:44:10;98523.38;;;2.67;100.00
59767;BME280;46248;58.364;25.582;2023-12-29T12:47:44;98520.84;;;2.65;100.00
59767;BME280;46248;58.364;25.582;2023-12-29T12:51:09;98515.53;;;2.68;100.00
59767;BME280;46248;58.364;25.582;2023-12-29T12:54:32;98519.81;;;2.69;100.00
59767;BME280;46248;58.364;25.582;2023-12-29T12:57:58;98513.78;;;2.69;100.00
59767;BME280;46248;58.364;25.582;2023-12-29T13:01:21;98524.03;;;2.70;100.00
59767;BME280;46248;58.364;25.582;2023-12-29T13:04:45;98521.47;;;2.70;100.00
59767;BME280;46248;58.364;25.582;2023-12-29T13:08:09;98527.47;;;2.71;100.00
59767;BME280;46248;58.364;25.582;2023-12-29T13:11:32;98522.97;;;2.74;100.00
59767;BME280;46248;58.364;25.582;2023-12-29T13:15:07;98530.72;;;2.74;100.00
59767;BME280;46248;58.364;25.582;2023-12-29T13:18:31;98533.41;;;2.73;100.00
59767;BME280;46248;58.364;25.582;2023-12-29T13:21:55;98526.63;;;2.70;100.00
59767;BME280;46248;58.364;25.582;2023-12-29T13:25:19;98523.94;;;2.72;100.00
59767;BME280;46248;58.364;25.582;2023-12-29T13:28:43;98525.66;;;2.73;100.00
59767;BME280;46248;58.364;25.582;2023-12-29T13:32:10;98523.06;;;2.73;100.00
59767;BME280;46248;58.364;25.582;2023-12-29T13:35:38;98526.47;;;2.73;100.00
59767;BME280;46248;58.364;25.582;2023-12-29T13:39:21;98527.97;;;2.78;100.00
59767;BME280;46248;58.364;25.582;2023-12-29T13:42:47;98529.81;;;2.75;100.00
59767;BME280;46248;58.364;25.582;2023-12-29T13:46:12;98537.31;;;2.80;100.00
59767;BME280;46248;58.364;25.582;2023-12-29T13:49:38;98533.81;;;2.81;100.00
59767;BME280;46248;58.364;25.582;2023-12-29T13:53:02;98539.84;;;2.82;100.00
59767;BME280;46248;58.364;25.582;2023-12-29T13:56:25;98529.56;;;2.80;100.00
59767;BME280;46248;58.364;25.582;2023-12-29T13:59:48;98543.31;;;2.81;100.00
59767;BME280;46248;58.364;25.582;2023-12-29T14:03:21;98541.56;;;2.81;100.00
59767;BME280;46248;58.364;25.582;2023-12-29T14:06:54;98532.31;;;2.77;100.00
59767;BME280;46248;58.364;25.582;2023-12-29T14:10:18;98541.72;;;2.78;100.00
59767;BME280;46248;58.364;25.582;2023-12-29T14:13:43;98529.06;;;2.73;100.00
59767;BME280;46248;58.364;25.582;2023-12-29T14:17:07;98524.97;;;2.69;100.00
59767;BME280;46248;58.364;25.582;2023-12-29T14:20:35;98535.81;;;2.76;100.00
59767;BME280;46248;58.364;25.582;2023-12-29T14:24:10;98530.81;;;2.73;100.00
59767;BME280;46248;58.364;25.582;2023-12-29T14:27:34;98530.81;;;2.73;100.00
59767;BME280;46248;58.364;25.582;2023-12-29T14:31:01;98523.88;;;2.73;100.00
59767;BME280;46248;58.364;25.582;2023-12-29T14:34:24;98524.81;;;2.72;100.00
59767;BME280;46248;58.364;25.582;2023-12-29T14:37:48;98524.81;;;2.72;100.00
59767;BME280;46248;58.364;25.582;2023-12-29T14:41:12;98521.31;;;2.73;100.00
59767;BME280;46248;58.364;25.582;2023-12-29T14:44:35;98526.47;;;2.73;100.00
59767;BME280;46248;58.364;25.582;2023-12-29T14:48:00;98524.72;;;2.74;100.00
59767;BME280;46248;58.364;25.582;2023-12-29T14:51:24;98512.78;;;2.71;100.00
59767;BME280;46248;58.364;25.582;2023-12-29T14:55:10;98522.06;;;2.75;100.00
59767;BME280;46248;58.364;25.582;2023-12-29T14:58:35;98525.56;;;2.74;100.00
59767;BME280;46248;58.364;25.582;2023-12-29T15:01:58;98523.06;;;2.73;100.00
59767;BME280;46248;58.364;25.582;2023-12-29T15:05:22;98503.75;;;2.63;100.00
59767;BME280;46248;58.364;25.582;2023-12-29T15:08:45;98522.38;;;2.69;100.00
59767;BME280;46248;58.364;25.582;2023-12-29T15:12:08;98524.88;;;2.71;100.00
59767;BME280;46248;58.364;25.582;2023-12-29T15:15:33;98508.25;;;2.59;100.00
59767;BME280;46248;58.364;25.582;2023-12-29T15:18:57;98524.88;;;2.71;100.00
59767;BME280;46248;58.364;25.582;2023-12-29T15:22:20;98527.47;;;2.71;100.00
59767;BME280;46248;58.364;25.582;2023-12-29T15:25:47;98513.88;;;2.67;100.00
59767;BME280;46248;58.364;25.582;2023-12-29T15:29:10;98523.88;;;2.73;100.00
59767;BME280;46248;58.364;25.582;2023-12-29T15:32:34;98527.31;;;2.74;100.00
59767;BME280;46248;58.364;25.582;2023-12-29T15:35:57;98520.38;;;2.74;100.00
59767;BME280;46248;58.364;25.582;2023-12-29T15:39:20;98518.72;;;2.73;100.00
59767;BME280;46248;58.364;25.582;2023-12-29T15:42:43;98520.38;;;2.74;100.00
59767;BME280;46248;58.364;25.582;2023-12-29T15:46:13;98517.88;;;2.73;100.00
59767;BME280;46248;58.364;25.582;2023-12-29T15:49:39;98506.72;;;2.72;100.00
59767;BME280;46248;58.364;25.582;2023-12-29T15:53:03;98508.59;;;2.69;100.00
59767;BME280;46248;58.364;25.582;2023-12-29T15:56:26;98501.94;;;2.65;100.00
59767;BME280;46248;58.364;25.582;2023-12-29T15:59:51;98510.28;;;2.70;100.00
59767;BME280;46248;58.364;25.582;2023-12-29T16:03:14;98506.13;;;2.67;100.00
59767;BME280;46248;58.364;25.582;2023-12-29T16:06:40;98514.53;;;2.71;100.00
59767;BME280;46248;58.364;25.582;2023-12-29T16:10:03;98506.78;;;2.71;100.00
59767;BME280;46248;58.364;25.582;2023-12-29T16:13:28;98507.63;;;2.71;100.00
59767;BME280;46248;58.364;25.582;2023-12-29T16:16:51;98504.19;;;2.71;100.00
59767;BME280;46248;58.364;25.582;2023-12-29T16:20:14;98511.03;;;2.72;100.00
59767;BME280;46248;58.364;25.582;2023-12-29T16:23:39;98507.56;;;2.73;100.00
59767;BME280;46248;58.364;25.582;2023-12-29T16:27:02;98509.97;;;2.76;100.00
59767;BME280;46248;58.364;25.582;2023-12-29T16:30:25;98510.72;;;2.78;100.00
59767;BME280;46248;58.364;25.582;2023-12-29T16:33:49;98514.91;;;2.81;100.00
59767;BME280;46248;58.364;25.582;2023-12-29T16:37:11;98513.13;;;2.81;100.00
59767;BME280;46248;58.364;25.582;2023-12-29T16:40:36;98515.72;;;2.81;100.00
59767;BME280;46248;58.364;25.582;2023-12-29T16:43:59;98514.06;;;2.80;100.00
59767;BME280;46248;58.364;25.582;2023-12-29T16:47:23;98519.25;;;2.80;100.00
59767;BME280;46248;58.364;25.582;2023-12-29T16:50:48;98515.88;;;2.78;100.00
59767;BME280;46248;58.364;25.582;2023-12-29T16:54:11;98521.97;;;2.77;100.00
59767;BME280;46248;58.364;25.582;2023-12-29T16:57:36;98514.22;;;2.77;100.00
59767;BME280;46248;58.364;25.582;2023-12-29T17:01:02;98520.22;;;2.78;100.00
59767;BME280;46248;58.364;25.582;2023-12-29T17:04:25;98518.41;;;2.80;100.00
59767;BME280;46248;58.364;25.582;2023-12-29T17:07:50;98515.88;;;2.78;100.00
59767;BME280;46248;58.364;25.582;2023-12-29T17:11:12;98521.00;;;2.80;100.00
59767;BME280;46248;58.364;25.582;2023-12-29T17:14:38;98519.25;;;2.80;100.00
59767;BME280;46248;58.364;25.582;2023-12-29T17:18:01;98518.41;;;2.80;100.00
59767;BME280;46248;58.364;25.582;2023-12-29T17:21:24;98514.16;;;2.79;100.00
59767;BME280;46248;58.364;25.582;2023-12-29T17:24:47;98514.16;;;2.79;100.00
59767;BME280;46248;58.364;25.582;2023-12-29T17:28:11;98509.06;;;2.77;100.00
59767;BME280;46248;58.364;25.582;2023-12-29T17:31:39;98511.63;;;2.77;100.00
59767;BME280;46248;58.364;25.582;2023-12-29T17:35:05;98510.81;;;2.77;100.00
59767;BME280;46248;58.364;25.582;2023-12-29T17:38:29;98512.56;;;2.76;100.00
59767;BME280;46248;58.364;25.582;2023-12-29T17:41:52;98509.16;;;2.75;100.00
59767;BME280;46248;58.364;25.582;2023-12-29T17:45:15;98503.53;;;2.67;100.00
59767;BME280;46248;58.364;25.582;2023-12-29T17:48:40;98508.53;;;2.70;100.00
59767;BME280;46248;58.364;25.582;2023-12-29T17:52:04;98512.78;;;2.71;100.00
59767;BME280;46248;58.364;25.582;2023-12-29T17:55:27;98513.56;;;2.73;100.00
59767;BME280;46248;58.364;25.582;2023-12-29T17:58:50;98515.22;;;2.74;100.00